Kezdőlap
METAR-TAF:

METAR-TAF

Repülőterek :

Ushuaia, Argentína

földrajzi szélesség: 54-48S, földrajzi hosszúság: 068-19W, magasság: 16 m

Jelenlegi meteorológiai megfigyelések

A jelentés 1 órával és 0 perccel ezelõtt készült, 13:00 UTC
Délnyugati szél 8 kt
Hőmérséklet 0°C
Páratartalom 64%
Légköri nyomás 1020 hPa
Látótávolság 10 km, vagy több
Szakadozott felhőzet 4000 lábon

METAR: SAWH 231300Z 23008KT 9999 BKN040 00/M06 Q1020

Idő: 11:00 (14:00 UTC)

Előrejelzés

A jelentés 3 órával és 0 perccel ezelõtt készült, 11:00 UTC
Az előrejelzés 23-én 12 óra UTC és 24-én 12 óra UTC között érvényes
Délnyugati szél 15 kt
Látótávolság 10 km, vagy több
Szakadozott felhőzet 2700 lábon
23-én 23 óra UTC és 24-én 01 óra UTC között fokozatosan kialakuló
Különbözõ irányokból fújó szél 5 kt

TAF: SAWH 231100Z 2312/2412 23015KT 9999 BKN027 TX03/2318Z TNM05/2410Z BECMG 2323/2401 VRB05KT

Meteorológiai megfigyelések és előrejelzések több, mint 4000 repülőtéren (METAR és TAF jelentéseket).

A térképen piros és sárga pontok jelzik az elérhető meteorológiai állomásokat.

Mozgassa az egeret a pont fölött, hogy megjelenjen az állomás neve.

Azután kattintson az időjárási megfigyelések és előrejelzések megtekintéséhez.

A térkép megváltoztatása: kattintson a fekete keresztel jelölt zöld gombra ráközelítéshez, a vonallal jelölt zöld gombra távolításhoz, vagy a zöld nyilakra a szomszédos térképek eléréséhez.


METAR-TAF: